Dana Trader — 5VCX8 — position and weather

sailwx.info

Track history (hours):
 
Tides and Currents Weather Stations Pressure Air Temp Water Temp Dewpoint Dewpoint Depression Visibility Wind Speed Wind Dir Waves Ship Positions

Dana Trader

Last reported at 2017-Nov-18 19:37 UTC. Time now 2017-Nov-24 15:08 UTC.
Position N 32°24' E 033°47'.

; draft 3.9 m.

MMSI: 671515000.

Date/timePositionNaut miles runAvg speedWind from/ knotsBaromVisibWave heightAir tempDewpointWater temp
2017-Nov-18 19:37N 32°24' E 033°47'2 9.0
2017-Nov-18 19:23N 32°22' E 033°47'4 9.0
2017-Nov-18 18:58N 32°18' E 033°47'4 8.9
2017-Nov-18 18:30N 32°14' E 033°47'5 9.1
2017-Nov-18 18:00N 32°10' E 033°47'5 9.2
2017-Nov-18 17:30N 32°05' E 033°48'6 9.2
2017-Nov-18 16:53N 31°59' E 033°48'7 9.3
2017-Nov-18 16:09N 31°52' E 033°48'1 9.1
2017-Nov-18 16:00N 31°51' E 033°48'5 9.1
2017-Nov-18 15:31N 31°47' E 033°48'21 9.0
2017-Nov-18 13:08N 31°25' E 033°48'2 9.2
2017-Nov-18 12:56N 31°23' E 033°48'4 8.9
2017-Nov-18 12:30N 31°20' E 033°49'4 9.0
2017-Nov-18 12:01N 31°15' E 033°49'5 8.5
2017-Nov-18 11:29N 31°11' E 033°51'2 3.7
2017-Nov-18 10:58N 31°09' E 033°50'0 0.0
2017-Nov-18 10:28N 31°09' E 033°50'0 0.0
2017-Nov-18 01:43N 31°09' E 033°50'0 0.0
2017-Nov-17 23:01N 31°09' E 033°50'0 0.0
2017-Nov-17 22:58N 31°09' E 033°50'0 0.0
2017-Nov-17 22:25N 31°09' E 033°50'0 0.0
2017-Nov-17 21:58N 31°09' E 033°50'0 0.0
2017-Nov-17 20:49N 31°09' E 033°50'0 0.0
2017-Nov-17 20:25N 31°09' E 033°50'3 0.4
2017-Nov-17 11:42N 31°13' E 033°49'  
Track history (hours):
 
Tides and Currents Weather Stations Pressure Air Temp Water Temp Dewpoint Dewpoint Depression Visibility Wind Speed Wind Dir Waves Ship Positions

Dana Trader

Last reported at 2017-Nov-18 19:37 UTC. Time now 2017-Nov-24 15:08 UTC.
Position N 32°24' E 033°47'.

; draft 3.9 m.

MMSI: 671515000.

Date/timePositionNaut miles runAvg speedWind from/ knotsBaromVisibWave heightAir tempDewpointWater temp
2017-Nov-18 19:37N 32°24' E 033°47'2 9.0
2017-Nov-18 19:23N 32°22' E 033°47'4 9.0
2017-Nov-18 18:58N 32°18' E 033°47'4 8.9
2017-Nov-18 18:30N 32°14' E 033°47'5 9.1
2017-Nov-18 18:00N 32°10' E 033°47'5 9.2
2017-Nov-18 17:30N 32°05' E 033°48'6 9.2
2017-Nov-18 16:53N 31°59' E 033°48'7 9.3
2017-Nov-18 16:09N 31°52' E 033°48'1 9.1
2017-Nov-18 16:00N 31°51' E 033°48'5 9.1
2017-Nov-18 15:31N 31°47' E 033°48'21 9.0
2017-Nov-18 13:08N 31°25' E 033°48'2 9.2
2017-Nov-18 12:56N 31°23' E 033°48'4 8.9
2017-Nov-18 12:30N 31°20' E 033°49'4 9.0
2017-Nov-18 12:01N 31°15' E 033°49'5 8.5
2017-Nov-18 11:29N 31°11' E 033°51'2 3.7
2017-Nov-18 10:58N 31°09' E 033°50'0 0.0
2017-Nov-18 10:28N 31°09' E 033°50'0 0.0
2017-Nov-18 01:43N 31°09' E 033°50'0 0.0
2017-Nov-17 23:01N 31°09' E 033°50'0 0.0
2017-Nov-17 22:58N 31°09' E 033°50'0 0.0
2017-Nov-17 22:25N 31°09' E 033°50'0 0.0
2017-Nov-17 21:58N 31°09' E 033°50'0 0.0
2017-Nov-17 20:49N 31°09' E 033°50'0 0.0
2017-Nov-17 20:25N 31°09' E 033°50'3 0.4
2017-Nov-17 11:42N 31°13' E 033°49'  

Dump ship's entire track history